Time;durP1;ratioP1;P1;durP2;ratioP2;P2;SDS_P1;SDS_P2;PMS_P1;PMS_P2;Temp;Humidity;BMP_temperature;BMP_pressure;BME280_temperature;BME280_humidity;BME280_pressure;Samples;Min_cycle;Max_cycle;Signal;HPM_P1;HPM_P2
2022/12/24 00:00:23;;;;;;;;;;;;;;;8.19;100.00;100620.13;4990673;28;20328;-67
2022/12/24 00:02:48;;;;;;;;;;;;;;;8.15;100.00;100618.50;4995750;28;19921;-67
2022/12/24 00:05:14;;;;;;;;;;;;;;;8.12;100.00;100629.72;4995454;28;19914;-67
2022/12/24 00:07:39;;;;;;;;;;;;;;;8.09;100.00;100636.66;4994416;28;20041;-67
2022/12/24 00:10:04;;;;;;;;;;;;;;;8.09;100.00;100644.41;4994536;28;19914;-67
2022/12/24 00:12:30;;;;;;;;;;;;;;;8.08;100.00;100640.97;4995505;28;20004;-66
2022/12/24 00:14:55;;;;;;;;;;;;;;;8.08;100.00;100651.31;4995460;28;19917;-67
2022/12/24 00:17:20;;;;;;;;;;;;;;;8.09;100.00;100654.75;4993992;28;19969;-66
2022/12/24 00:19:45;;;;;;;;;;;;;;;8.09;100.00;100647.00;4995945;28;19914;-66
2022/12/24 00:22:10;;;;;;;;;;;;;;;8.08;100.00;100653.03;4985090;28;19956;-66
2022/12/24 00:24:36;;;;;;;;;;;;;;;8.06;100.00;100662.53;4995221;28;19914;-67
2022/12/24 00:27:02;;;;;;;;;;;;;;;8.06;100.00;100665.09;4994125;28;19914;-66
2022/12/24 00:29:27;;;;;;;;;;;;;;;8.05;100.00;100666.00;4994436;28;20002;-67
2022/12/24 00:31:52;;;;;;;;;;;;;;;8.05;100.00;100658.25;4994848;28;19953;-66
2022/12/24 00:34:18;;;;;;;;;;;;;;;8.06;100.00;100667.69;4994895;28;19914;-67
2022/12/24 00:36:43;;;;;;;;;;;;;;;8.06;100.00;100672.84;4994558;28;19952;-66
2022/12/24 00:39:08;;;;;;;;;;;;;;;8.09;100.00;100667.66;4994645;28;19913;-67
2022/12/24 00:41:33;;;;;;;;;;;;;;;8.13;100.00;100677.88;4994523;28;19921;-67
2022/12/24 00:43:58;;;;;;;;;;;;;;;8.19;100.00;100684.69;4993691;28;19945;-67
2022/12/24 00:46:25;;;;;;;;;;;;;;;8.22;100.00;100689.81;4974401;28;20377;-67
2022/12/24 00:48:50;;;;;;;;;;;;;;;8.22;100.00;100690.66;4991049;28;19964;-67
2022/12/24 00:51:15;;;;;;;;;;;;;;;8.20;100.00;100700.16;4993180;28;19918;-66
2022/12/24 00:53:41;;;;;;;;;;;;;;;8.20;100.00;100694.97;4994589;28;19920;-67
2022/12/24 00:56:06;;;;;;;;;;;;;;;8.23;100.00;100701.84;4992146;28;19914;-66
2022/12/24 00:58:31;;;;;;;;;;;;;;;8.21;100.00;100709.59;4993361;28;20049;-70
2022/12/24 01:00:57;;;;;;;;;;;;;;;8.15;100.00;100708.84;4992303;28;19925;-70
2022/12/24 01:03:22;;;;;;;;;;;;;;;8.12;100.00;100720.06;4992810;28;19917;-70
2022/12/24 01:05:47;;;;;;;;;;;;;;;8.11;100.00;100720.97;4993292;28;20278;-70
2022/12/24 01:08:13;;;;;;;;;;;;;;;8.07;100.00;100719.28;4992170;28;19925;-70
2022/12/24 01:10:38;;;;;;;;;;;;;;;8.05;100.00;100728.78;4992390;28;19921;-70
2022/12/24 01:13:03;;;;;;;;;;;;;;;8.07;100.00;100727.03;4992320;28;19996;-70
2022/12/24 01:15:29;;;;;;;;;;;;;;;8.08;100.00;100725.31;4993681;28;19932;-70
2022/12/24 01:17:54;;;;;;;;;;;;;;;8.09;100.00;100727.03;4992104;28;19914;-70
2022/12/24 01:20:19;;;;;;;;;;;;;;;8.10;100.00;100733.91;4975519;28;19917;-70
2022/12/24 01:22:44;;;;;;;;;;;;;;;8.13;100.00;100731.25;4992904;28;19918;-70
2022/12/24 01:25:10;;;;;;;;;;;;;;;8.11;100.00;100733.03;4975705;28;19914;-70
2022/12/24 01:27:35;;;;;;;;;;;;;;;8.07;100.00;100733.94;4992619;28;19947;-70
2022/12/24 01:30:00;;;;;;;;;;;;;;;8.07;100.00;100739.09;4991949;28;20373;-66
2022/12/24 01:32:26;;;;;;;;;;;;;;;8.04;100.00;100749.47;4975587;28;19913;-66
2022/12/24 01:34:51;;;;;;;;;;;;;;;8.03;100.00;100760.69;4993692;28;19914;-66
2022/12/24 01:37:16;;;;;;;;;;;;;;;8.02;100.00;100758.97;4993168;28;19948;-66
2022/12/24 01:39:42;;;;;;;;;;;;;;;7.98;100.00;100765.91;4993955;28;19914;-66
2022/12/24 01:45:19;;;;;;;;;;;;;;;7.85;100.00;100766.94;4994041;28;19960;-66
2022/12/24 01:47:44;;;;;;;;;;;;;;;7.82;100.00;100764.41;4993376;28;19996;-66
2022/12/24 01:50:14;;;;;;;;;;;;;;;7.80;100.00;100763.56;4993502;28;19964;-66
2022/12/24 01:52:40;;;;;;;;;;;;;;;7.78;100.00;100770.50;4992554;28;19968;-66
2022/12/24 01:55:07;;;;;;;;;;;;;;;7.74;100.00;100776.56;4991226;28;19921;-66
2022/12/24 01:57:34;;;;;;;;;;;;;;;7.73;100.00;100764.53;4992351;28;19944;-66
2022/12/24 02:00:03;;;;;;;;;;;;;;;7.71;100.00;100774.84;4983592;28;19926;-66
2022/12/24 02:02:29;;;;;;;;;;;;;;;7.69;100.00;100783.50;4986597;28;20455;-66
2022/12/24 02:04:59;;;;;;;;;;;;;;;7.67;100.00;100786.09;4991845;28;19949;-66
2022/12/24 02:07:24;;;;;;;;;;;;;;;7.68;100.00;100784.38;4989821;28;19918;-65
2022/12/24 02:09:52;;;;;;;;;;;;;;;7.73;100.00;100796.34;4992994;28;19936;-66
2022/12/24 02:12:17;;;;;;;;;;;;;;;7.78;100.00;100798.88;4987942;28;19929;-66
2022/12/24 02:14:42;;;;;;;;;;;;;;;7.82;100.00;100798.81;4991163;28;19913;-66
2022/12/24 02:17:17;;;;;;;;;;;;;;;7.88;100.00;100793.56;4993125;28;20004;-66
2022/12/24 02:19:57;;;;;;;;;;;;;;;7.93;100.00;100794.34;4992689;28;19936;-65
2022/12/24 02:22:22;;;;;;;;;;;;;;;8.00;100.00;100802.00;4990247;28;20372;-66
2022/12/24 02:25:00;;;;;;;;;;;;;;;8.06;100.00;100812.25;4982242;28;19920;-65
2022/12/24 02:27:25;;;;;;;;;;;;;;;8.11;100.00;100810.47;4987330;28;19918;-66
2022/12/24 02:29:53;;;;;;;;;;;;;;;8.15;100.00;100805.22;4992044;28;19920;-66
2022/12/24 02:32:18;;;;;;;;;;;;;;;8.18;100.00;100805.19;4990426;28;19913;-66
2022/12/24 02:34:46;;;;;;;;;;;;;;;8.24;100.00;100814.59;4983528;28;19921;-66
2022/12/24 02:37:18;;;;;;;;;;;;;;;8.26;100.00;100812.81;4991957;28;19932;-66
2022/12/24 02:39:50;;;;;;;;;;;;;;;8.28;100.00;100814.50;4989337;28;19957;-66
2022/12/24 02:42:19;;;;;;;;;;;;;;;8.30;100.00;100817.06;4989651;28;20447;-65
2022/12/24 02:44:50;;;;;;;;;;;;;;;8.32;100.00;100815.34;4990375;28;20381;-65
2022/12/24 02:47:17;;;;;;;;;;;;;;;8.35;100.00;100810.13;4992839;28;20061;-66
2022/12/24 02:49:43;;;;;;;;;;;;;;;8.37;100.00;100808.38;4993138;28;19918;-65
2022/12/24 02:52:26;;;;;;;;;;;;;;;8.37;100.00;100816.13;4991418;28;20387;-66
2022/12/24 02:54:51;;;;;;;;;;;;;;;8.38;100.00;100819.56;4984441;28;20379;-66
2022/12/24 02:57:23;;;;;;;;;;;;;;;8.38;100.00;100820.44;4992616;28;19914;-65
2022/12/24 02:59:56;;;;;;;;;;;;;;;8.38;100.00;100822.16;4991885;28;19952;-65
2022/12/24 03:02:24;;;;;;;;;;;;;;;8.36;100.00;100822.16;4984049;28;19917;-65
2022/12/24 03:05:07;;;;;;;;;;;;;;;8.33;100.00;100823.06;4985405;28;19933;-65
2022/12/24 03:07:35;;;;;;;;;;;;;;;8.30;100.00;100824.81;4990148;28;20061;-65
2022/12/24 03:10:11;;;;;;;;;;;;;;;8.29;100.00;100818.78;4992367;28;20013;-65
2022/12/24 03:13:02;;;;;;;;;;;;;;;8.33;100.00;100830.81;4979907;28;19914;-65
2022/12/24 03:15:28;;;;;;;;;;;;;;;8.35;100.00;100828.22;4987526;28;19992;-65
2022/12/24 03:17:57;;;;;;;;;;;;;;;8.32;100.00;100828.28;4986449;28;19960;-65
2022/12/24 03:20:25;;;;;;;;;;;;;;;8.31;100.00;100830.00;4994174;28;20397;-65
2022/12/24 03:22:50;;;;;;;;;;;;;;;8.36;100.00;100829.91;4996907;28;19913;-65
2022/12/24 03:25:16;;;;;;;;;;;;;;;8.39;100.00;100823.88;4993541;28;19925;-65
2022/12/24 03:27:42;;;;;;;;;;;;;;;8.43;100.00;100830.69;4996105;28;20296;-66
2022/12/24 03:30:09;;;;;;;;;;;;;;;8.46;100.00;100838.41;4996080;28;19956;-65
2022/12/24 03:32:34;;;;;;;;;;;;;;;8.49;100.00;100831.44;4994757;28;20000;-65
2022/12/24 03:35:00;;;;;;;;;;;;;;;8.52;100.00;100838.28;4991933;28;19977;-65
2022/12/24 03:37:26;;;;;;;;;;;;;;;8.51;100.00;100834.00;4993704;28;19920;-65
2022/12/24 03:39:51;;;;;;;;;;;;;;;8.49;100.00;100833.16;4994202;28;19925;-65
2022/12/24 03:42:16;;;;;;;;;;;;;;;8.45;100.00;100840.13;4995323;28;19920;-65
2022/12/24 03:44:42;;;;;;;;;;;;;;;8.46;100.00;100846.97;4994657;28;19918;-65
2022/12/24 03:47:07;;;;;;;;;;;;;;;8.49;100.00;100844.34;4993353;28;19920;-65
2022/12/24 03:49:32;;;;;;;;;;;;;;;8.51;100.00;100832.28;4988725;28;19927;-65
2022/12/24 03:51:57;;;;;;;;;;;;;;;8.54;100.00;100839.09;4995295;28;19914;-65
2022/12/24 03:54:23;;;;;;;;;;;;;;;8.55;100.00;100841.66;4975805;28;19914;-65
2022/12/24 03:56:48;;;;;;;;;;;;;;;8.57;100.00;100842.50;4992040;28;19929;-65
2022/12/24 03:59:14;;;;;;;;;;;;;;;8.58;100.00;100849.38;4994664;28;20100;-65
2022/12/24 04:01:39;;;;;;;;;;;;;;;8.59;100.00;100850.25;4992588;28;19925;-65
2022/12/24 04:04:04;;;;;;;;;;;;;;;8.61;100.00;100858.81;4987150;28;19913;-65
2022/12/24 04:06:30;;;;;;;;;;;;;;;8.60;100.00;100857.09;4990178;28;19924;-65
2022/12/24 04:08:55;;;;;;;;;;;;;;;8.62;100.00;100857.94;4988902;28;19976;-65
2022/12/24 04:11:20;;;;;;;;;;;;;;;8.64;100.00;100849.28;4992567;28;20372;-66
2022/12/24 04:13:45;;;;;;;;;;;;;;;8.69;100.00;100855.22;4984673;28;20336;-65
2022/12/24 04:16:12;;;;;;;;;;;;;;;8.73;100.00;100856.06;4991357;28;19918;-65
2022/12/24 04:18:38;;;;;;;;;;;;;;;8.78;100.00;100868.91;4987139;28;19920;-65
2022/12/24 04:21:04;;;;;;;;;;;;;;;8.81;100.00;100864.50;4988608;28;20009;-65
2022/12/24 04:23:30;;;;;;;;;;;;;;;8.85;100.00;100870.50;4995775;28;19945;-65
2022/12/24 04:25:57;;;;;;;;;;;;;;;8.88;100.00;100867.84;4993935;28;19910;-65
2022/12/24 04:28:23;;;;;;;;;;;;;;;8.91;100.00;100880.75;4994582;28;19972;-65
2022/12/24 04:30:48;;;;;;;;;;;;;;;8.94;100.00;100870.34;4992742;28;19913;-66
2022/12/24 04:33:13;;;;;;;;;;;;;;;8.95;100.00;100867.72;4989217;28;19918;-65
2022/12/24 04:35:40;;;;;;;;;;;;;;;8.96;100.00;100878.91;4988360;28;19943;-65
2022/12/24 04:38:05;;;;;;;;;;;;;;;8.96;100.00;100882.38;4990735;28;19913;-65
2022/12/24 04:40:30;;;;;;;;;;;;;;;8.98;100.00;100880.63;4977278;28;19918;-65
2022/12/24 04:42:56;;;;;;;;;;;;;;;9.00;100.00;100883.19;4993582;28;19917;-65
2022/12/24 04:45:21;;;;;;;;;;;;;;;9.03;100.00;100888.28;4993493;28;19914;-65
2022/12/24 04:47:46;;;;;;;;;;;;;;;9.03;100.00;100890.88;4993159;28;19924;-62
2022/12/24 04:50:11;;;;;;;;;;;;;;;9.05;100.00;100895.16;4993649;28;19920;-62
2022/12/24 04:52:37;;;;;;;;;;;;;;;9.04;100.00;100888.25;4982129;28;19914;-63
2022/12/24 04:55:02;;;;;;;;;;;;;;;9.03;100.00;100888.28;4993172;28;19920;-62
2022/12/24 04:57:30;;;;;;;;;;;;;;;9.01;100.00;100890.88;4976107;28;19977;-64
2022/12/24 04:59:55;;;;;;;;;;;;;;;9.01;100.00;100882.28;4993515;28;19922;-64
2022/12/24 05:02:20;;;;;;;;;;;;;;;8.95;100.00;100888.41;4993255;28;19914;-64
2022/12/24 05:04:45;;;;;;;;;;;;;;;8.92;100.00;100896.22;4996542;28;20784;-65
2022/12/24 05:07:10;;;;;;;;;;;;;;;8.87;100.00;100892.84;4992861;28;19922;-64
2022/12/24 05:09:35;;;;;;;;;;;;;;;8.82;100.00;100889.47;4991737;28;19915;-64
2022/12/24 05:12:01;;;;;;;;;;;;;;;8.80;100.00;100898.16;4987730;28;19920;-64
2022/12/24 05:14:26;;;;;;;;;;;;;;;8.75;100.00;100900.78;4991615;28;19960;-64
2022/12/24 05:16:51;;;;;;;;;;;;;;;8.77;100.00;100908.53;4994485;28;19985;-64
2022/12/24 05:19:16;;;;;;;;;;;;;;;8.79;100.00;100904.19;4993026;28;19920;-64
2022/12/24 05:21:41;;;;;;;;;;;;;;;8.82;100.00;100901.56;4987103;28;19924;-64
2022/12/24 05:26:54;;;;;;;;;;;;;;;8.87;100.00;100895.44;4991632;28;20622;-64
2022/12/24 05:29:20;;;;;;;;;;;;;;;8.89;100.00;100883.34;4992927;28;19913;-64
2022/12/24 05:31:45;;;;;;;;;;;;;;;8.91;100.00;100885.91;4992106;28;20009;-64
2022/12/24 05:34:11;;;;;;;;;;;;;;;8.92;100.00;100895.38;4991747;28;19920;-65
2022/12/24 05:36:37;;;;;;;;;;;;;;;8.91;100.00;100893.66;4993859;28;19964;-64
2022/12/24 05:39:02;;;;;;;;;;;;;;;8.86;100.00;100892.88;4992508;28;20571;-64
2022/12/24 05:41:27;;;;;;;;;;;;;;;8.84;100.00;100892.91;4993559;28;19922;-64
2022/12/24 05:43:52;;;;;;;;;;;;;;;8.86;100.00;100890.31;4991484;28;19918;-64
2022/12/24 05:46:19;;;;;;;;;;;;;;;8.87;100.00;100899.78;4994491;28;20303;-64
2022/12/24 05:48:45;;;;;;;;;;;;;;;8.87;100.00;100903.19;4993824;28;19917;-64
2022/12/24 05:51:11;;;;;;;;;;;;;;;8.87;100.00;100905.75;4988193;28;19914;-64
2022/12/24 05:53:36;;;;;;;;;;;;;;;8.82;100.00;100909.31;4991239;28;19917;-64
2022/12/24 05:56:03;;;;;;;;;;;;;;;8.78;100.00;100907.66;4987210;28;20005;-64
2022/12/24 05:58:28;;;;;;;;;;;;;;;8.74;100.00;100927.50;4993634;28;20332;-64
2022/12/24 06:00:53;;;;;;;;;;;;;;;8.79;100.00;100922.28;4992731;28;20400;-64
2022/12/24 06:03:18;;;;;;;;;;;;;;;8.82;100.00;100929.97;4993781;28;19914;-64
2022/12/24 06:05:44;;;;;;;;;;;;;;;8.79;100.00;100930.03;4992911;28;19921;-64
2022/12/24 06:08:09;;;;;;;;;;;;;;;8.78;100.00;100938.66;4975103;28;19925;-64
2022/12/24 06:10:34;;;;;;;;;;;;;;;8.73;100.00;100937.00;4992142;28;19914;-68
2022/12/24 06:12:59;;;;;;;;;;;;;;;8.69;100.00;100950.00;4993040;28;19942;-68
2022/12/24 06:15:24;;;;;;;;;;;;;;;8.71;100.00;100941.34;4992002;28;20373;-68
2022/12/24 06:17:50;;;;;;;;;;;;;;;8.70;100.00;100939.63;4991083;28;19914;-68
2022/12/24 06:20:15;;;;;;;;;;;;;;;8.69;100.00;100943.09;4991194;28;19917;-68
2022/12/24 06:22:40;;;;;;;;;;;;;;;8.70;100.00;100949.97;4991543;28;19920;-68
2022/12/24 06:25:05;;;;;;;;;;;;;;;8.70;100.00;100946.53;4992022;28;19913;-68
2022/12/24 06:27:31;;;;;;;;;;;;;;;8.71;100.00;100943.06;4992964;28;20368;-68
2022/12/24 06:29:56;;;;;;;;;;;;;;;8.72;100.00;100944.78;4984823;28;20199;-68
2022/12/24 06:32:21;;;;;;;;;;;;;;;8.73;100.00;100936.16;4986494;28;19941;-68
2022/12/24 06:34:46;;;;;;;;;;;;;;;8.73;100.00;100946.50;4991061;28;19914;-68
2022/12/24 06:37:17;;;;;;;;;;;;;;;8.75;100.00;100954.22;4990642;28;19913;-69
2022/12/24 06:39:43;;;;;;;;;;;;;;;8.84;100.00;100956.66;4992199;28;19917;-65
2022/12/24 06:42:08;;;;;;;;;;;;;;;8.76;100.00;100954.19;4992699;28;19968;-65
2022/12/24 06:44:33;;;;;;;;;;;;;;;8.73;100.00;100962.84;4991349;28;19909;-65
2022/12/24 06:46:58;;;;;;;;;;;;;;;8.74;100.00;100974.03;4992029;28;19914;-65
2022/12/24 06:49:23;;;;;;;;;;;;;;;8.76;100.00;100972.28;4993150;28;19921;-65
2022/12/24 06:51:49;;;;;;;;;;;;;;;8.78;100.00;100970.53;4990913;28;19913;-65
2022/12/24 06:54:14;;;;;;;;;;;;;;;8.81;100.00;100979.97;4991803;28;19960;-65
2022/12/24 06:56:39;;;;;;;;;;;;;;;8.81;100.00;100977.38;4996585;28;20336;-65
2022/12/24 06:59:04;;;;;;;;;;;;;;;8.79;100.00;100973.97;4996344;28;20327;-65
2022/12/24 07:01:30;;;;;;;;;;;;;;;8.78;100.00;100969.69;4993881;28;20476;-65
2022/12/24 07:03:55;;;;;;;;;;;;;;;8.78;100.00;100974.84;4996091;28;19993;-65
2022/12/24 07:06:23;;;;;;;;;;;;;;;8.77;100.00;100978.31;4996330;28;19917;-65
2022/12/24 07:08:48;;;;;;;;;;;;;;;8.69;100.00;100988.75;4995902;28;19914;-65
2022/12/24 07:11:14;;;;;;;;;;;;;;;8.58;100.00;100981.16;4993102;28;19916;-65
2022/12/24 07:13:39;;;;;;;;;;;;;;;8.53;100.00;100984.69;4997024;28;19910;-65
2022/12/24 07:16:04;;;;;;;;;;;;;;;8.52;100.00;100983.81;4996431;28;19932;-65
2022/12/24 07:18:30;;;;;;;;;;;;;;;8.51;100.00;100997.63;4996570;28;19956;-68
2022/12/24 07:20:55;;;;;;;;;;;;;;;8.49;100.00;101003.66;4988039;28;19922;-66
2022/12/24 07:23:21;;;;;;;;;;;;;;;8.41;100.00;100998.59;4987814;28;19989;-68
2022/12/24 07:25:46;;;;;;;;;;;;;;;8.40;100.00;101001.19;4995802;28;19909;-68
2022/12/24 07:28:11;;;;;;;;;;;;;;;8.34;100.00;100996.94;4995625;28;19914;-68
2022/12/24 07:30:36;;;;;;;;;;;;;;;8.27;100.00;101008.19;4994409;28;19914;-68
2022/12/24 07:33:02;;;;;;;;;;;;;;;8.22;100.00;101005.66;4977697;28;20342;-68
2022/12/24 07:35:27;;;;;;;;;;;;;;;8.19;100.00;101015.16;4993041;28;19913;-68
2022/12/24 07:37:52;;;;;;;;;;;;;;;8.15;100.00;101032.44;4994483;28;19921;-68
2022/12/24 07:40:17;;;;;;;;;;;;;;;8.14;100.00;101025.56;4996683;28;20349;-68
2022/12/24 07:42:43;;;;;;;;;;;;;;;8.10;100.00;101025.59;4994777;28;20380;-68
2022/12/24 07:45:08;;;;;;;;;;;;;;;8.07;100.00;101036.81;4980244;28;20393;-68
2022/12/24 07:47:34;;;;;;;;;;;;;;;8.06;100.00;101040.25;4994716;28;19910;-68
2022/12/24 07:49:59;;;;;;;;;;;;;;;8.01;100.00;101041.19;4992751;28;20344;-64
2022/12/24 07:52:24;;;;;;;;;;;;;;;7.97;100.00;101045.53;4996377;28;19913;-64
2022/12/24 07:54:49;;;;;;;;;;;;;;;7.93;100.00;101052.44;4995077;28;19909;-65
2022/12/24 07:57:15;;;;;;;;;;;;;;;7.93;100.00;101049.84;4996099;28;19921;-64
2022/12/24 07:59:40;;;;;;;;;;;;;;;7.90;100.00;101060.22;4994603;28;20279;-64
2022/12/24 08:02:05;;;;;;;;;;;;;;;7.89;100.00;101065.41;4988932;28;19914;-63
2022/12/24 08:04:31;;;;;;;;;;;;;;;7.92;100.00;101076.53;4995700;28;19972;-63
2022/12/24 08:06:56;;;;;;;;;;;;;;;7.97;100.00;101081.66;4994296;28;19918;-63
2022/12/24 08:09:22;;;;;;;;;;;;;;;8.04;100.00;101082.47;4994007;28;19914;-63
2022/12/24 08:11:47;;;;;;;;;;;;;;;8.03;100.00;101089.34;4994253;28;19961;-63
2022/12/24 08:14:13;;;;;;;;;;;;;;;8.04;100.00;101091.06;4995140;28;19948;-63
2022/12/24 08:16:38;;;;;;;;;;;;;;;8.08;100.00;101102.22;4995585;28;20391;-63
2022/12/24 08:19:03;;;;;;;;;;;;;;;8.10;100.00;101097.91;4994028;28;20040;-64
2022/12/24 08:21:28;;;;;;;;;;;;;;;8.12;100.00;101099.56;4997550;28;20304;-64
2022/12/24 08:23:54;;;;;;;;;;;;;;;8.17;100.00;101115.91;4998795;28;19976;-64
2022/12/24 08:26:19;;;;;;;;;;;;;;;8.19;100.00;101110.69;5000954;28;19914;-64
2022/12/24 08:28:44;;;;;;;;;;;;;;;8.17;100.00;101120.22;4990325;28;19936;-64
2022/12/24 08:31:09;;;;;;;;;;;;;;;8.14;100.00;101117.63;4993699;28;20392;-64
2022/12/24 08:33:35;;;;;;;;;;;;;;;8.14;100.00;101118.50;4995590;28;19937;-64
2022/12/24 08:36:00;;;;;;;;;;;;;;;8.15;100.00;101114.19;4994947;28;19910;-64
2022/12/24 08:38:26;;;;;;;;;;;;;;;8.21;100.00;101127.03;4995141;28;19960;-64
2022/12/24 08:40:51;;;;;;;;;;;;;;;8.26;100.00;101120.09;4995381;28;19914;-64
2022/12/24 08:43:17;;;;;;;;;;;;;;;8.26;100.00;101120.97;4994623;28;19953;-64
2022/12/24 08:45:42;;;;;;;;;;;;;;;8.27;100.00;101122.66;4995473;28;19916;-64
2022/12/24 08:48:08;;;;;;;;;;;;;;;8.29;100.00;101126.09;4995054;28;19909;-65
2022/12/24 08:50:33;;;;;;;;;;;;;;;8.32;100.00;101128.66;4976558;28;20349;-64
2022/12/24 08:52:59;;;;;;;;;;;;;;;8.35;100.00;101140.72;4994478;28;19920;-64
2022/12/24 08:55:24;;;;;;;;;;;;;;;8.37;100.00;101145.88;4994616;28;19913;-64
2022/12/24 08:57:49;;;;;;;;;;;;;;;8.38;100.00;101145.00;4994204;28;20428;-63
2022/12/24 09:00:15;;;;;;;;;;;;;;;8.37;100.00;101144.16;4994155;28;20413;-63
2022/12/24 09:02:40;;;;;;;;;;;;;;;8.38;100.00;101151.03;4972618;28;20431;-63
2022/12/24 09:05:05;;;;;;;;;;;;;;;8.46;100.00;101162.13;4993765;28;20488;-63
2022/12/24 09:07:30;;;;;;;;;;;;;;;8.55;100.00;101161.19;4994229;28;19924;-64
2022/12/24 09:09:56;;;;;;;;;;;;;;;8.71;100.00;101150.66;4989302;28;20412;-63
2022/12/24 09:12:21;;;;;;;;;;;;;;;8.80;100.00;101160.06;4997851;28;19913;-63
2022/12/24 09:14:46;;;;;;;;;;;;;;;8.80;100.00;101161.78;4996570;28;19913;-64
2022/12/24 09:17:11;;;;;;;;;;;;;;;8.77;100.00;101170.41;4998030;28;19977;-63
2022/12/24 09:19:37;;;;;;;;;;;;;;;8.77;100.00;101178.16;4992277;28;19972;-64
2022/12/24 09:22:02;;;;;;;;;;;;;;;8.84;100.00;101177.22;4992575;28;20061;-63
2022/12/24 09:24:27;;;;;;;;;;;;;;;8.98;100.00;101175.34;4993501;28;19924;-64
2022/12/24 09:26:53;;;;;;;;;;;;;;;9.13;100.00;101182.06;4994451;28;20261;-64
2022/12/24 09:29:18;;;;;;;;;;;;;;;9.22;100.00;101194.88;4993903;28;19913;-64
2022/12/24 09:31:43;;;;;;;;;;;;;;;9.24;100.00;101203.47;4997496;28;19917;-63
2022/12/24 09:34:08;;;;;;;;;;;;;;;9.29;100.00;101203.41;4988778;28;19941;-64
2022/12/24 09:36:34;;;;;;;;;;;;;;;9.31;100.00;101204.25;4994776;28;19910;-64
2022/12/24 09:38:59;;;;;;;;;;;;;;;9.29;100.00;101212.03;4991870;28;19952;-64
2022/12/24 09:41:37;;;;;;;;;;;;;;;9.30;100.00;101213.75;4996715;28;20381;-64
2022/12/24 09:44:14;;;;;;;;;;;;;;;9.32;100.00;101212.00;4992754;28;20327;-63
2022/12/24 09:46:42;;;;;;;;;;;;;;;9.32;100.00;101216.31;4996948;28;19909;-63
2022/12/24 09:49:13;;;;;;;;;;;;;;;9.30;100.00;101218.06;4990989;28;19914;-64
2022/12/24 09:51:40;;;;;;;;;;;;;;;9.33;100.00;101226.66;4992958;28;19993;-64
2022/12/24 09:54:18;;;;;;;;;;;;;;;9.45;100.00;101223.91;4993762;28;20369;-64
2022/12/24 09:56:45;;;;;;;;;;;;;;;9.57;100.00;101230.63;4993980;28;19914;-64
2022/12/24 09:59:24;;;;;;;;;;;;;;;9.60;100.00;101221.97;4993110;28;19918;-63
2022/12/24 10:01:51;;;;;;;;;;;;;;;9.60;100.00;101240.09;4996409;28;19968;-64
2022/12/24 10:04:18;;;;;;;;;;;;;;;9.60;100.00;101237.50;4993191;28;20005;-64
2022/12/24 10:06:59;;;;;;;;;;;;;;;9.59;100.00;101239.25;4972358;28;20365;-64
2022/12/24 10:09:30;;;;;;;;;;;;;;;9.56;100.00;101238.41;4982222;28;19913;-64
2022/12/24 10:12:04;;;;;;;;;;;;;;;9.56;100.00;101239.28;4994466;28;19909;-64
2022/12/24 10:14:38;;;;;;;;;;;;;;;9.62;100.00;101236.59;4989098;28;19913;-64
2022/12/24 10:17:22;;;;;;;;;;;;;;;9.69;100.00;101242.56;4993583;28;19953;-64
2022/12/24 10:19:56;;;;;;;;;;;;;;;9.77;100.00;101238.13;4994375;28;20303;-64
2022/12/24 10:22:21;;;;;;;;;;;;;;;9.81;100.00;101229.47;4992217;28;19957;-63
2022/12/24 10:25:07;;;;;;;;;;;;;;;9.84;100.00;101235.44;4975732;28;19972;-64
2022/12/24 10:27:38;;;;;;;;;;;;;;;9.82;100.00;101229.44;4980448;28;20499;-63
2022/12/24 10:30:11;;;;;;;;;;;;;;;9.80;100.00;101227.75;4997506;28;20368;-64
2022/12/24 10:32:36;;;;;;;;;;;;;;;9.74;100.00;101220.91;4996799;28;19973;-64
2022/12/24 10:35:07;;;;;;;;;;;;;;;9.67;100.00;101221.88;4997061;28;20045;-64
2022/12/24 10:37:32;;;;;;;;;;;;;;;9.61;100.00;101228.88;4995973;28;19913;-64
2022/12/24 10:39:59;;;;;;;;;;;;;;;9.58;100.00;101224.59;4990947;28;19913;-64
2022/12/24 10:42:30;;;;;;;;;;;;;;;9.55;100.00;101236.72;4994428;28;19920;-64
2022/12/24 10:45:00;;;;;;;;;;;;;;;9.54;100.00;101237.59;4994219;28;20324;-64
2022/12/24 10:47:26;;;;;;;;;;;;;;;9.57;100.00;101243.56;4996503;28;19909;-64
2022/12/24 10:49:54;;;;;;;;;;;;;;;9.59;100.00;101248.75;4996378;28;19916;-64
2022/12/24 10:52:26;;;;;;;;;;;;;;;9.66;100.00;101243.47;4985396;28;19948;-64
2022/12/24 10:55:07;;;;;;;;;;;;;;;9.77;100.00;101238.97;4994687;28;19925;-64
2022/12/24 10:57:32;;;;;;;;;;;;;;;9.84;100.00;101243.19;4987205;28;19924;-64
2022/12/24 10:59:58;;;;;;;;;;;;;;;9.96;100.00;101241.31;4986764;28;19910;-64
2022/12/24 11:02:30;;;;;;;;;;;;;;;10.09;100.00;101237.66;4990410;28;19914;-64
2022/12/24 11:04:58;;;;;;;;;;;;;;;10.21;100.00;101240.09;5001685;28;20423;-64
2022/12/24 11:07:23;;;;;;;;;;;;;;;10.23;100.00;101249.56;5003271;28;20104;-64
2022/12/24 11:09:59;;;;;;;;;;;;;;;10.27;100.00;101252.94;4997444;28;19910;-64
2022/12/24 11:12:32;;;;;;;;;;;;;;;10.35;100.00;101258.88;4995243;28;19921;-63
2022/12/24 11:15:06;;;;;;;;;;;;;;;10.43;100.00;101251.84;4997493;28;19910;-63
2022/12/24 11:17:32;;;;;;;;;;;;;;;10.47;100.00;101255.22;4996168;28;19917;-64
2022/12/24 11:19:58;;;;;;;;;;;;;;;10.51;100.00;101249.09;4996982;28;19944;-63
2022/12/24 11:22:25;;;;;;;;;;;;;;;10.59;100.00;101255.00;4996099;28;19916;-63
2022/12/24 11:25:02;;;;;;;;;;;;;;;10.62;100.00;101252.38;4996218;28;19914;-63
2022/12/24 11:27:32;;;;;;;;;;;;;;;10.59;100.00;101252.41;4995342;28;20372;-63
2022/12/24 11:30:16;;;;;;;;;;;;;;;10.59;100.00;101258.44;4996815;28;20266;-63
2022/12/24 11:32:41;;;;;;;;;;;;;;;10.63;100.00;101261.88;4995461;28;19934;-63
2022/12/24 11:35:07;;;;;;;;;;;;;;;10.64;100.00;101268.75;4996502;28;19930;-63
2022/12/24 11:37:32;;;;;;;;;;;;;;;10.61;100.00;101264.47;4993965;28;20288;-63
2022/12/24 11:40:00;;;;;;;;;;;;;;;10.59;100.00;101263.63;4994200;28;20360;-64
2022/12/24 11:42:32;;;;;;;;;;;;;;;10.60;100.00;101267.94;4994892;28;19910;-64
2022/12/24 11:44:59;;;;;;;;;;;;;;;10.59;100.00;101265.38;4978782;28;19916;-63
2022/12/24 11:47:34;;;;;;;;;;;;;;;10.56;100.00;101268.03;4983782;28;19910;-63
2022/12/24 11:50:18;;;;;;;;;;;;;;;10.54;100.00;101262.88;4996745;28;19941;-64
2022/12/24 11:52:44;;;;;;;;;;;;;;;10.52;100.00;101267.22;4996062;28;19917;-63
2022/12/24 11:55:28;;;;;;;;;;;;;;;10.52;100.00;101268.94;4995436;28;19921;-64
2022/12/24 11:57:59;;;;;;;;;;;;;;;10.49;100.00;101266.41;4994988;28;19921;-64
2022/12/24 12:00:25;;;;;;;;;;;;;;;10.52;100.00;101261.16;4995166;28;19917;-63
2022/12/24 12:02:51;;;;;;;;;;;;;;;10.49;100.00;101267.28;4987009;28;19913;-63
2022/12/24 12:05:18;;;;;;;;;;;;;;;10.45;100.00;101269.94;4996750;28;19956;-63
2022/12/24 12:07:46;;;;;;;;;;;;;;;10.36;100.00;101272.69;4989742;28;19918;-63
2022/12/24 12:10:17;;;;;;;;;;;;;;;10.30;100.00;101274.47;4983871;28;20391;-63
2022/12/24 12:12:52;;;;;;;;;;;;;;;10.29;100.00;101279.69;4991322;28;19913;-64
2022/12/24 12:15:29;;;;;;;;;;;;;;;10.32;100.00;101271.88;4991418;28;19914;-63
2022/12/24 12:18:10;;;;;;;;;;;;;;;10.40;100.00;101276.94;4985524;28;19913;-64
2022/12/24 12:20:51;;;;;;;;;;;;;;;10.56;100.00;101271.47;4996195;28;19914;-63
2022/12/24 12:23:25;;;;;;;;;;;;;;;10.63;100.00;101273.09;4993991;28;20434;-64
2022/12/24 12:25:52;;;;;;;;;;;;;;;10.61;100.00;101276.59;4995520;28;19913;-64
2022/12/24 12:28:20;;;;;;;;;;;;;;;10.56;100.00;101289.63;4987970;28;20365;-63
2022/12/24 12:30:53;;;;;;;;;;;;;;;10.55;100.00;101294.84;4989745;28;19916;-64
2022/12/24 12:33:22;;;;;;;;;;;;;;;10.49;100.00;101281.97;4998409;28;19906;-64
2022/12/24 12:35:47;;;;;;;;;;;;;;;10.45;100.00;101282.88;4996546;28;20041;-64
2022/12/24 12:38:18;;;;;;;;;;;;;;;10.43;100.00;101282.94;4991470;28;20012;-63
2022/12/24 12:40:58;;;;;;;;;;;;;;;10.43;100.00;101288.13;4983648;28;20404;-64